createdAt,value
2019-03-25T00:03:12.928Z,10.90
2019-03-25T00:07:18.184Z,10.90
2019-03-25T00:11:23.743Z,10.80
2019-03-25T00:15:29.066Z,11.00
2019-03-25T00:19:34.612Z,11.00
2019-03-25T00:23:40.295Z,10.80
2019-03-25T00:27:45.564Z,10.90
2019-03-25T00:31:50.853Z,11.10
2019-03-25T00:35:56.285Z,11.00
2019-03-25T00:40:01.597Z,10.90
2019-03-25T00:44:07.068Z,10.90
2019-03-25T00:48:12.396Z,11.00
2019-03-25T00:52:18.963Z,11.10
2019-03-25T00:56:24.239Z,11.20
2019-03-25T01:00:29.666Z,11.20
2019-03-25T01:04:35.191Z,11.30
2019-03-25T01:08:40.541Z,11.20
2019-03-25T01:12:46.173Z,11.00
2019-03-25T01:16:51.431Z,11.10
2019-03-25T01:20:56.760Z,11.30
2019-03-25T01:25:02.775Z,11.20
2019-03-25T01:29:08.483Z,11.10
2019-03-25T01:33:13.980Z,11.10
2019-03-25T01:37:19.374Z,11.10
2019-03-25T01:41:24.804Z,11.10
2019-03-25T01:45:32.533Z,11.20
2019-03-25T01:49:37.780Z,11.20
2019-03-25T01:53:44.208Z,11.30
2019-03-25T01:57:49.832Z,11.40
2019-03-25T02:01:55.131Z,11.30
2019-03-25T02:06:00.632Z,11.00
2019-03-25T02:10:06.824Z,11.00
2019-03-25T02:14:12.506Z,11.00
2019-03-25T02:18:17.884Z,11.20
2019-03-25T02:22:23.519Z,11.10
2019-03-25T02:26:29.185Z,11.00
2019-03-25T02:30:34.436Z,10.90
2019-03-25T02:34:39.731Z,11.00
2019-03-25T02:38:45.412Z,11.00
2019-03-25T02:42:50.955Z,10.90
2019-03-25T02:46:56.268Z,10.90
2019-03-25T02:51:01.545Z,10.80
2019-03-25T02:55:07.300Z,10.60
2019-03-25T02:59:15.481Z,10.40
2019-03-25T03:03:21.057Z,10.20
2019-03-25T03:07:27.475Z,10.10
2019-03-25T03:11:32.762Z,9.90
2019-03-25T03:15:38.015Z,10.00
2019-03-25T03:19:43.291Z,10.20
2019-03-25T03:23:48.911Z,10.10
2019-03-25T03:27:54.245Z,9.80
2019-03-25T03:31:59.853Z,9.40
2019-03-25T03:36:05.176Z,9.40
2019-03-25T03:40:10.811Z,9.50
2019-03-25T03:44:16.222Z,9.50
2019-03-25T03:48:21.753Z,9.50
2019-03-25T03:52:27.200Z,9.60
2019-03-25T03:56:32.832Z,9.50
2019-03-25T04:00:38.572Z,9.50
2019-03-25T04:04:44.749Z,9.30
2019-03-25T04:08:50.075Z,9.40
2019-03-25T04:12:56.769Z,9.40
2019-03-25T04:17:02.017Z,9.30
2019-03-25T04:21:07.466Z,9.20
2019-03-25T04:25:12.876Z,9.20
2019-03-25T04:29:18.160Z,9.20
2019-03-25T04:33:23.757Z,9.00
2019-03-25T04:37:29.011Z,8.90
2019-03-25T04:41:34.365Z,8.50
2019-03-25T04:45:39.768Z,8.60
2019-03-25T04:49:45.120Z,8.90
2019-03-25T04:53:50.820Z,9.10
2019-03-25T04:57:56.159Z,8.80
2019-03-25T05:02:01.652Z,8.60
2019-03-25T05:06:07.040Z,8.50
2019-03-25T05:10:12.912Z,8.40
2019-03-25T05:14:18.330Z,8.60
2019-03-25T05:18:23.622Z,8.40
2019-03-25T05:22:28.903Z,8.40
2019-03-25T05:26:34.188Z,8.40
2019-03-25T05:30:39.529Z,8.30
2019-03-25T05:34:45.131Z,8.40
2019-03-25T05:38:50.475Z,8.10
2019-03-25T05:42:56.408Z,8.00
2019-03-25T05:47:01.770Z,7.90
2019-03-25T05:51:07.196Z,8.00
2019-03-25T05:55:13.907Z,8.00
2019-03-25T05:59:19.259Z,7.90
2019-03-25T06:03:24.723Z,7.90
2019-03-25T06:07:30.063Z,7.90
2019-03-25T06:11:35.845Z,8.20
2019-03-25T06:15:41.271Z,8.10
2019-03-25T06:19:46.560Z,8.00
2019-03-25T06:23:51.949Z,8.10
2019-03-25T06:27:57.200Z,8.20
2019-03-25T06:32:02.773Z,8.40
2019-03-25T06:36:08.051Z,8.40
2019-03-25T06:40:13.752Z,8.20
2019-03-25T06:44:22.354Z,8.10
2019-03-25T06:48:27.668Z,8.10
2019-03-25T06:52:33.196Z,8.00
2019-03-25T06:56:38.656Z,7.60
2019-03-25T07:00:44.255Z,7.60
2019-03-25T07:04:49.660Z,7.50
2019-03-25T07:08:54.908Z,7.70
2019-03-25T07:13:01.837Z,7.70
2019-03-25T07:17:07.655Z,7.80
2019-03-25T07:21:13.083Z,7.60
2019-03-25T07:25:18.423Z,7.40
2019-03-25T07:29:23.688Z,7.50
2019-03-25T07:33:29.045Z,7.80
2019-03-25T07:37:34.330Z,8.00
2019-03-25T07:41:40.011Z,7.70
2019-03-25T07:45:47.593Z,7.40
2019-03-25T07:49:54.028Z,7.40
2019-03-25T07:53:59.375Z,7.60
2019-03-25T07:58:04.752Z,7.50
2019-03-25T08:02:10.237Z,7.80
2019-03-25T08:06:15.648Z,7.70
2019-03-25T08:10:35.753Z,7.50
2019-03-25T08:14:41.100Z,7.30
2019-03-25T08:18:46.441Z,7.50
2019-03-25T08:22:51.966Z,7.30
2019-03-25T08:26:57.378Z,7.30
2019-03-25T08:31:02.796Z,7.50
2019-03-25T08:35:08.759Z,7.50
2019-03-25T08:39:15.175Z,7.70
2019-03-25T08:43:20.506Z,7.80
2019-03-25T08:47:26.128Z,8.20
2019-03-25T08:51:31.428Z,8.70
2019-03-25T08:55:36.904Z,8.60
2019-03-25T08:59:42.201Z,8.40
2019-03-25T09:03:47.539Z,8.10
2019-03-25T09:07:52.867Z,8.20
2019-03-25T09:11:58.696Z,8.00
2019-03-25T09:16:04.131Z,7.90
2019-03-25T09:20:10.508Z,7.80
2019-03-25T09:24:15.911Z,7.70
2019-03-25T09:28:24.586Z,7.60
2019-03-25T09:32:28.500Z,8.10
2019-03-25T09:36:33.825Z,8.60
2019-03-25T09:40:39.301Z,8.80
2019-03-25T09:44:45.017Z,8.70
2019-03-25T09:48:50.466Z,8.40
2019-03-25T09:52:55.740Z,8.40
2019-03-25T09:57:01.040Z,8.20
2019-03-25T10:01:06.684Z,8.30
2019-03-25T10:05:12.404Z,8.30
2019-03-25T10:09:18.197Z,8.30
2019-03-25T10:13:23.556Z,8.00
2019-03-25T10:17:30.159Z,7.90
2019-03-25T10:21:35.598Z,7.80
2019-03-25T10:25:40.895Z,8.20
2019-03-25T10:29:46.244Z,8.30
2019-03-25T10:33:51.677Z,8.00
2019-03-25T10:37:57.100Z,8.20
2019-03-25T10:42:03.563Z,8.40
2019-03-25T10:46:09.333Z,8.70
2019-03-25T10:50:14.738Z,8.70
2019-03-25T10:54:20.301Z,8.80
2019-03-25T10:58:25.601Z,8.60
2019-03-25T11:02:30.982Z,8.80
2019-03-25T11:06:36.321Z,8.80
2019-03-25T11:10:41.704Z,8.60
2019-03-25T11:14:47.086Z,8.50
2019-03-25T11:18:52.496Z,8.70
2019-03-25T11:22:57.793Z,8.50
2019-03-25T11:27:03.521Z,8.40
2019-03-25T11:31:08.864Z,8.60
2019-03-25T11:35:15.112Z,9.10
2019-03-25T11:39:20.435Z,9.40
2019-03-25T11:43:26.155Z,9.10
2019-03-25T11:47:32.573Z,9.40
2019-03-25T11:51:37.917Z,9.40
2019-03-25T11:55:43.238Z,9.40
2019-03-25T11:59:48.600Z,9.60
2019-03-25T12:03:54.107Z,9.40
2019-03-25T12:07:59.473Z,9.30
2019-03-25T12:12:05.215Z,9.10
2019-03-25T12:16:10.534Z,9.20
2019-03-25T12:20:16.341Z,8.80
2019-03-25T12:24:21.709Z,8.60
2019-03-25T12:28:27.353Z,8.40
2019-03-25T12:32:32.711Z,8.50
2019-03-25T12:36:38.114Z,8.80
2019-03-25T12:40:43.492Z,8.90
2019-03-25T12:44:48.900Z,9.60
2019-03-25T12:48:54.224Z,10.10
2019-03-25T12:52:59.647Z,9.70
2019-03-25T12:57:05.707Z,9.20
2019-03-25T13:01:11.284Z,9.10
2019-03-25T13:05:16.552Z,9.20
2019-03-25T13:09:21.807Z,9.10
2019-03-25T13:13:27.155Z,8.70
2019-03-25T13:17:32.484Z,8.60
2019-03-25T13:21:37.722Z,8.80
2019-03-25T13:25:43.060Z,8.30
2019-03-25T13:29:52.769Z,8.30
2019-03-25T13:33:55.276Z,7.90
2019-03-25T13:38:00.631Z,8.40
2019-03-25T13:42:06.050Z,8.90
2019-03-25T13:46:11.414Z,9.10
2019-03-25T13:50:17.049Z,9.10
2019-03-25T13:54:22.320Z,9.40
2019-03-25T13:58:27.678Z,9.40
2019-03-25T14:02:33.053Z,8.90
2019-03-25T14:06:38.286Z,9.10
2019-03-25T14:10:43.675Z,8.80
2019-03-25T14:14:49.013Z,8.20
2019-03-25T14:18:54.357Z,8.10
2019-03-25T14:23:00.041Z,8.70
2019-03-25T14:27:05.769Z,8.50
2019-03-25T14:31:12.281Z,8.80
2019-03-25T14:35:17.863Z,8.20
2019-03-25T14:39:23.300Z,7.60
2019-03-25T14:43:28.951Z,7.10
2019-03-25T14:47:34.183Z,6.60
2019-03-25T14:51:40.040Z,6.40
2019-03-25T14:55:45.457Z,6.30
2019-03-25T14:59:50.817Z,5.70
2019-03-25T15:03:56.109Z,5.40
2019-03-25T15:08:01.500Z,5.50
2019-03-25T15:12:08.103Z,5.40
2019-03-25T15:16:13.432Z,5.30
2019-03-25T15:20:19.140Z,5.30
2019-03-25T15:24:24.491Z,5.60
2019-03-25T15:28:29.816Z,5.90
2019-03-25T15:32:35.072Z,6.40
2019-03-25T15:36:40.316Z,7.20
2019-03-25T15:40:45.576Z,8.10
2019-03-25T15:44:51.304Z,8.60
2019-03-25T15:48:56.771Z,8.50
2019-03-25T15:53:02.379Z,7.70
2019-03-25T15:57:07.859Z,7.80
2019-03-25T16:01:13.642Z,7.40
2019-03-25T16:05:19.092Z,7.60
2019-03-25T16:09:24.581Z,7.80
2019-03-25T16:13:30.554Z,7.60
2019-03-25T16:17:36.279Z,7.10
2019-03-25T16:21:41.754Z,6.70
2019-03-25T16:25:47.105Z,6.70
2019-03-25T16:29:52.556Z,6.80
2019-03-25T16:33:58.309Z,6.80
2019-03-25T16:38:04.592Z,6.70
2019-03-25T16:42:10.079Z,6.60
2019-03-25T16:46:15.596Z,5.70
2019-03-25T16:50:21.055Z,4.90
2019-03-25T16:54:27.580Z,4.70
2019-03-25T16:58:35.096Z,4.70
2019-03-25T17:02:40.570Z,4.70
2019-03-25T17:06:47.106Z,4.80
2019-03-25T17:10:52.939Z,4.70
2019-03-25T17:14:58.304Z,4.70
2019-03-25T17:19:03.668Z,4.90
2019-03-25T17:23:09.097Z,4.90
2019-03-25T17:27:15.311Z,4.90
2019-03-25T17:31:21.401Z,5.00
2019-03-25T17:35:26.975Z,5.10
2019-03-25T17:39:32.408Z,5.30
2019-03-25T17:43:37.847Z,5.20
2019-03-25T17:47:43.195Z,5.10
2019-03-25T17:51:48.660Z,5.20
2019-03-25T17:55:54.108Z,5.20
2019-03-25T17:59:59.603Z,5.20
2019-03-25T18:04:05.676Z,5.20
2019-03-25T18:08:11.139Z,5.00
2019-03-25T18:12:16.621Z,5.10
2019-03-25T18:16:22.091Z,5.20
2019-03-25T18:20:27.528Z,5.00
2019-03-25T18:24:34.271Z,5.00
2019-03-25T18:28:39.736Z,5.00
2019-03-25T18:32:45.122Z,5.00
2019-03-25T18:36:50.410Z,5.20
2019-03-25T18:40:55.892Z,5.40
2019-03-25T18:45:01.344Z,5.40
2019-03-25T18:49:08.061Z,4.40
2019-03-25T18:53:13.591Z,4.20
2019-03-25T18:57:19.047Z,4.00
2019-03-25T19:01:24.731Z,3.80
2019-03-25T19:05:30.928Z,3.80
2019-03-25T19:09:36.432Z,3.80
2019-03-25T19:13:41.917Z,3.90
2019-03-25T19:17:47.415Z,4.20
2019-03-25T19:21:53.086Z,4.20
2019-03-25T19:25:58.729Z,4.30
2019-03-25T19:30:04.802Z,4.00
2019-03-25T19:34:29.225Z,4.10
2019-03-25T19:38:35.643Z,4.10
2019-03-25T19:42:41.706Z,4.10
2019-03-25T19:46:47.188Z,4.10
2019-03-25T19:50:53.137Z,4.10
2019-03-25T19:54:58.726Z,4.20
2019-03-25T19:59:04.368Z,4.10
2019-03-25T20:03:10.109Z,4.20
2019-03-25T20:07:15.567Z,4.20
2019-03-25T20:11:21.898Z,4.10
2019-03-25T20:15:27.439Z,4.10
2019-03-25T20:19:32.844Z,4.10
2019-03-25T20:23:38.549Z,3.90
2019-03-25T20:27:44.339Z,4.00
2019-03-25T20:31:50.449Z,3.90
2019-03-25T20:35:56.342Z,4.10
2019-03-25T20:40:01.943Z,4.40
2019-03-25T20:44:07.964Z,4.50
2019-03-25T20:48:14.256Z,4.40
2019-03-25T20:52:20.137Z,4.40
2019-03-25T20:56:25.501Z,4.30
2019-03-25T21:00:56.763Z,4.30
2019-03-25T21:05:03.654Z,4.30
2019-03-25T21:09:09.492Z,4.20
2019-03-25T21:13:15.383Z,4.20
2019-03-25T21:17:20.935Z,4.10
2019-03-25T21:21:26.661Z,4.00
2019-03-25T21:25:33.960Z,3.90
2019-03-25T21:29:39.619Z,3.80
2019-03-25T21:33:45.733Z,3.60
2019-03-25T21:37:51.240Z,3.70
2019-03-25T21:41:57.057Z,3.70
2019-03-25T21:46:04.101Z,3.70
2019-03-25T21:50:10.131Z,3.80
2019-03-25T21:54:15.878Z,4.00
2019-03-25T21:58:21.526Z,4.00
2019-03-25T22:02:27.357Z,3.90
2019-03-25T22:06:32.784Z,4.10
2019-03-25T22:10:39.512Z,4.20
2019-03-25T22:14:45.121Z,4.10
2019-03-25T22:18:50.685Z,4.00
2019-03-25T22:22:57.533Z,3.80
2019-03-25T22:27:03.242Z,4.00
2019-03-25T22:31:09.124Z,4.00
2019-03-25T22:35:14.578Z,3.80
2019-03-25T22:39:20.659Z,3.80
2019-03-25T22:43:26.333Z,3.70
2019-03-25T22:47:31.771Z,3.80
2019-03-25T22:51:38.556Z,3.90
2019-03-25T22:55:44.276Z,4.00
2019-03-25T22:59:49.740Z,4.00
2019-03-25T23:03:55.510Z,3.80
2019-03-25T23:08:00.957Z,3.70
2019-03-25T23:12:07.689Z,3.80
2019-03-25T23:16:13.148Z,3.80
2019-03-25T23:20:18.788Z,3.90
2019-03-25T23:24:24.233Z,3.90
2019-03-25T23:28:31.856Z,4.00
2019-03-25T23:32:37.370Z,4.10
2019-03-25T23:36:42.757Z,4.00
2019-03-25T23:40:48.210Z,4.10
2019-03-25T23:44:53.668Z,4.20
2019-03-25T23:48:59.124Z,4.30
2019-03-25T23:53:05.243Z,4.30
2019-03-25T23:57:10.681Z,4.20
